Terminal Aerodrome Forecast
Issued by NWS Hastings, NE

Home | Current Version | Previous Version | Text Only | Print | Product List | Glossary On
Versions: 1 2 3 4 5 6 7 8 9 10 11 12 13 14 15 16 17 18 19 20 21
000
FTUS45 KGID 251540 AAA
TAFEAR
TAF AMD
KEAR 251540Z 2516/2612 34015G23KT P6SM BKN025
     FM252100 34012KT P6SM SCT030
     FM260000 VRB06KT P6SM SCT100
      AMD LTD TO CLD VIS AND WIND=

USA.gov is the U.S. government's official web portal to all federal, state and local government web resources and services.